Time;durP1;ratioP1;P1;durP2;ratioP2;P2;SDS_P1;SDS_P2;PMS_P1;PMS_P2;Temp;Humidity;BMP_temperature;BMP_pressure;BME280_temperature;BME280_humidity;BME280_pressure;Samples;Min_cycle;Max_cycle;Signal;HPM_P1;HPM_P2
2022/11/15 00:02:21;;;;;;;;;;;;;;;;;;4421027;32;20415;-69
2022/11/15 00:04:46;;;;;;;202.77;71.37;;;;;;;;;;4421507;32;19948;-69
2022/11/15 00:07:11;;;;;;;;;;;;;;;;;;4421424;32;20129;-69
2022/11/15 00:09:37;;;;;;;175.18;65.00;;;;;;;;;;4421459;32;19945;-69
2022/11/15 00:12:02;;;;;;;183.18;67.22;;;;;;;;;;4419602;32;20021;-69
2022/11/15 00:14:27;;;;;;;;;;;;;;;;;;4420740;32;20406;-69
2022/11/15 00:16:52;;;;;;;212.70;69.70;;;;;;;;;;4412618;32;20245;-68
2022/11/15 00:19:17;;;;;;;;;;;;;;;;;;4406200;32;20140;-69
2022/11/15 00:21:42;;;;;;;241.10;71.18;;;;;;;;;;4404671;32;19966;-69
2022/11/15 00:24:08;;;;;;;;;;;;;;;;;;4406164;32;20134;-68
2022/11/15 00:26:33;;;;;;;265.90;76.10;;;;;;;;;;4391938;32;19938;-69
2022/11/15 00:28:58;;;;;;;;;;;;;;;;;;4392497;32;20027;-69
2022/11/15 00:31:23;;;;;;;182.77;62.53;;;;;;;;;;4404348;32;19952;-69
2022/11/15 00:33:48;;;;;;;;;;;;;;;;;;4405919;32;20362;-69
2022/11/15 00:36:13;;;;;;;258.08;71.10;;;;;;;;;;4406138;32;19937;-69
2022/11/15 00:38:38;;;;;;;;;;;;;;;;;;4404394;32;20038;-69
2022/11/15 00:41:05;;;;;;;343.27;80.12;;;;;;;;;;4404251;32;19944;-68
2022/11/15 00:43:30;;;;;;;279.35;75.55;;;;;;;;;;4406266;32;20101;-68
2022/11/15 00:45:56;;;;;;;;;;;;;;;;;;4417316;32;20064;-69
2022/11/15 00:48:21;;;;;;;265.30;77.80;;;;;;;;;;4420601;32;19983;-68
2022/11/15 00:50:46;;;;;;;;;;;;;;;;;;4419798;32;20148;-68
2022/11/15 00:53:11;;;;;;;411.90;90.12;;;;;;;;;;4419722;32;20303;-69
2022/11/15 00:55:36;;;;;;;;;;;;;;;;;;4405681;32;20056;-69
2022/11/15 00:58:01;;;;;;;307.02;76.18;;;;;;;;;;4419500;32;20272;-68
2022/11/15 01:00:26;;;;;;;;;;;;;;;;;;4406138;32;20131;-69
2022/11/15 01:02:51;;;;;;;301.52;78.03;;;;;;;;;;4418388;32;19985;-69
2022/11/15 01:05:17;;;;;;;;;;;;;;;;;;4420258;32;20037;-69
2022/11/15 01:07:42;;;;;;;301.90;79.90;;;;;;;;;;4419005;32;19944;-68
2022/11/15 01:10:07;;;;;;;;;;;;;;;;;;4420448;32;20034;-68
2022/11/15 01:12:32;;;;;;;347.08;85.05;;;;;;;;;;4420418;32;19946;-69
2022/11/15 01:14:57;;;;;;;244.05;73.15;;;;;;;;;;4400148;32;20090;-68
2022/11/15 01:17:22;;;;;;;;;;;;;;;;;;4408922;32;20104;-68
2022/11/15 01:19:47;;;;;;;306.00;82.75;;;;;;;;;;4408667;32;20324;-69
2022/11/15 01:22:13;;;;;;;332.35;83.72;;;;;;;;;;4408609;32;20068;-67
2022/11/15 01:24:38;;;;;;;;;;;;;;;;;;4408105;32;20447;-68
2022/11/15 01:27:03;;;;;;;303.02;81.82;;;;;;;;;;4407145;32;19934;-69
2022/11/15 01:29:28;;;;;;;;;;;;;;;;;;4408920;32;20021;-69
2022/11/15 01:31:53;;;;;;;336.25;88.12;;;;;;;;;;4408659;32;19942;-69
2022/11/15 01:34:18;;;;;;;;;;;;;;;;;;4407792;32;20413;-69
2022/11/15 01:36:44;;;;;;;292.98;83.15;;;;;;;;;;4408242;32;19965;-69
2022/11/15 01:39:09;;;;;;;262.92;79.97;;;;;;;;;;4442839;27;20462;-71
2022/11/15 01:41:34;;;;;;;;;;;;;;;;;;4423735;32;20025;-71
2022/11/15 01:44:18;;;;;;;280.50;82.37;;;;;;;;;;4437499;32;19941;-72
2022/11/15 01:46:45;;;;;;;292.05;83.85;;;;;;;;;;4417817;32;20133;-72
2022/11/15 01:49:12;;;;;;;260.42;77.82;;;;;;;;;;4408119;32;20026;-72
2022/11/15 01:51:38;;;;;;;198.38;69.40;;;;;;;;;;4421423;32;20498;-72
2022/11/15 01:54:03;;;;;;;;;;;;;;;;;;4423318;32;20022;-72
2022/11/15 01:56:29;;;;;;;265.65;80.65;;;;;;;;;;4421307;32;19937;-72
2022/11/15 01:58:56;;;;;;;239.40;77.05;;;;;;;;;;4422105;32;20151;-72
2022/11/15 02:01:22;;;;;;;261.35;83.15;;;;;;;;;;4410616;32;20022;-72
2022/11/15 02:03:54;;;;;;;240.40;81.07;;;;;;;;;;4428366;32;20077;-72
2022/11/15 02:06:19;;;;;;;265.42;82.50;;;;;;;;;;4414328;32;20436;-72
2022/11/15 02:08:45;;;;;;;;;;;;;;;;;;4421517;32;20044;-72
2022/11/15 02:11:10;;;;;;;258.60;80.25;;;;;;;;;;4423798;32;19957;-72
2022/11/15 02:13:36;;;;;;;245.18;80.57;;;;;;;;;;4422154;32;20092;-73
2022/11/15 02:16:01;;;;;;;;;;;;;;;;;;4413873;32;20034;-73
2022/11/15 02:18:29;;;;;;;234.68;74.35;;;;;;;;;;4392455;32;20308;-72
2022/11/15 02:20:59;;;;;;;279.70;85.50;;;;;;;;;;4406491;32;20030;-72
2022/11/15 02:23:37;;;;;;;237.77;81.95;;;;;;;;;;4408451;32;20050;-72
2022/11/15 02:26:21;;;;;;;213.48;75.10;;;;;;;;;;4406170;32;20048;-73
2022/11/15 02:28:52;;;;;;;174.40;68.03;;;;;;;;;;4406008;32;20481;-72
2022/11/15 02:31:36;;;;;;;250.10;77.28;;;;;;;;;;4406468;32;20053;-72
2022/11/15 02:34:31;;;;;;;212.85;76.47;;;;;;;;;;4392959;32;20106;-71
2022/11/15 02:37:03;;;;;;;170.15;65.75;;;;;;;;;;4393337;32;20046;-73
2022/11/15 02:39:34;;;;;;;220.65;74.25;;;;;;;;;;4407284;32;20075;-72
2022/11/15 02:45:07;;;;;;;259.58;80.03;;;;;;;;;;4409287;32;20064;-72
2022/11/15 02:47:34;;;;;;;241.23;79.20;;;;;;;;;;4421997;32;20417;-72
2022/11/15 02:50:01;;;;;;;187.35;72.03;;;;;;;;;;4421549;32;20089;-72
2022/11/15 02:52:26;;;;;;;229.48;78.07;;;;;;;;;;4406986;32;20042;-71
2022/11/15 02:54:51;;;;;;;;;;;;;;;;;;4420935;32;20427;-72
2022/11/15 02:57:18;;;;;;;184.10;71.35;;;;;;;;;;4406452;32;20081;-72
2022/11/15 03:00:03;;;;;;;235.60;81.18;;;;;;;;;;4421312;32;20254;-72
2022/11/15 03:02:52;;;;;;;164.23;68.37;;;;;;;;;;4419549;32;20389;-72
2022/11/15 03:05:40;;;;;;;227.05;77.87;;;;;;;;;;4406754;32;20044;-72
2022/11/15 03:08:09;;;;;;;194.65;74.47;;;;;;;;;;4371843;32;20034;-72
2022/11/15 03:10:42;;;;;;;167.73;70.57;;;;;;;;;;4420416;32;20021;-72
2022/11/15 03:13:07;;;;;;;175.62;71.28;;;;;;;;;;4407863;32;20115;-72
2022/11/15 03:15:46;;;;;;;175.24;73.48;;;;;;;;;;4422324;32;20026;-71
2022/11/15 03:18:29;;;;;;;203.10;77.57;;;;;;;;;;4422571;32;20044;-72
2022/11/15 03:20:55;;;;;;;198.93;79.10;;;;;;;;;;4420977;32;20030;-72
2022/11/15 03:23:20;;;;;;;;;;;;;;;;;;4422821;32;20082;-72
2022/11/15 03:25:48;;;;;;;198.98;74.62;;;;;;;;;;4420360;32;19933;-73
2022/11/15 03:28:15;;;;;;;170.30;74.15;;;;;;;;;;4420610;32;20081;-73
2022/11/15 03:30:41;;;;;;;171.43;70.97;;;;;;;;;;4421148;32;20029;-73
2022/11/15 03:33:07;;;;;;;198.77;79.30;;;;;;;;;;4421315;32;20429;-73
2022/11/15 03:35:35;;;;;;;181.45;74.82;;;;;;;;;;4420386;32;20057;-73
2022/11/15 03:38:15;;;;;;;159.65;70.93;;;;;;;;;;4406573;32;20046;-73
2022/11/15 03:40:41;;;;;;;173.75;74.50;;;;;;;;;;4420129;32;20064;-72
2022/11/15 03:43:12;;;;;;;162.02;71.43;;;;;;;;;;4420510;32;20030;-72
2022/11/15 03:45:46;;;;;;;172.02;71.12;;;;;;;;;;4420771;32;20061;-72
2022/11/15 03:48:14;;;;;;;123.62;63.05;;;;;;;;;;4421757;32;20060;-73
2022/11/15 03:50:39;;;;;;;134.95;64.37;;;;;;;;;;4420738;32;20053;-72
2022/11/15 03:53:05;;;;;;;;;;;;;;;;;;4406636;32;20030;-72
2022/11/15 03:55:31;;;;;;;145.82;66.28;;;;;;;;;;4407864;32;19945;-73
2022/11/15 03:57:58;;;;;;;119.50;60.22;;;;;;;;;;4408366;32;20120;-75
2022/11/15 04:00:24;;;;;;;126.20;63.85;;;;;;;;;;4421056;32;20456;-73
2022/11/15 04:02:49;;;;;;;;;;;;;;;;;;4422341;32;20026;-73
2022/11/15 04:05:14;;;;;;;138.15;64.53;;;;;;;;;;4421633;32;19942;-72
2022/11/15 04:07:39;;;;;;;111.03;56.65;;;;;;;;;;4422245;32;20078;-73
2022/11/15 04:10:07;;;;;;;;;;;;;;;;;;4420534;32;20029;-72
2022/11/15 04:12:32;;;;;;;;;;;;;;;;;;4422475;32;19974;-72
2022/11/15 04:15:08;;;;;;;103.40;55.70;;;;;;;;;;4407466;32;19941;-71
2022/11/15 04:17:34;;;;;;;103.20;54.97;;;;;;;;;;4410842;32;20021;-71
2022/11/15 04:25:27;;;;;;;82.90;49.10;;;;;;;;;;4422191;32;20067;-71
2022/11/15 04:27:52;;;;;;;;;;;;;;;;;;4421261;32;20022;-72
2022/11/15 04:30:17;;;;;;;95.35;51.75;;;;;;;;;;4420385;32;19989;-73
2022/11/15 04:32:42;;;;;;;95.35;51.92;;;;;;;;;;4422053;32;20042;-72
2022/11/15 04:35:07;;;;;;;;;;;;;;;;;;4406390;32;20097;-72
2022/11/15 04:37:32;;;;;;;83.03;47.38;;;;;;;;;;4421146;32;19940;-73
2022/11/15 04:39:58;;;;;;;90.55;49.13;;;;;;;;;;4406922;32;20401;-73
2022/11/15 04:42:23;;;;;;;;;;;;;;;;;;4422415;32;20060;-73
2022/11/15 04:44:48;;;;;;;80.00;45.12;;;;;;;;;;4422072;32;19982;-73
2022/11/15 04:47:13;;;;;;;85.62;47.08;;;;;;;;;;4420153;32;20049;-72
2022/11/15 04:49:38;;;;;;;75.32;43.95;;;;;;;;;;4409675;32;20054;-73
2022/11/15 04:52:03;;;;;;;;;;;;;;;;;;4423953;32;20408;-72
2022/11/15 04:54:29;;;;;;;63.90;40.63;;;;;;;;;;4422878;32;19957;-73
2022/11/15 04:56:54;;;;;;;;;;;;;;;;;;4424825;32;20156;-73
2022/11/15 04:59:19;;;;;;;61.67;37.17;;;;;;;;;;4424349;32;19969;-73
2022/11/15 05:01:44;;;;;;;73.15;41.83;;;;;;;;;;4410688;32;20038;-73
2022/11/15 05:04:18;;;;;;;;;;;;;;;;;;4409400;32;20030;-72
2022/11/15 05:06:44;;;;;;;54.72;34.83;;;;;;;;;;4423394;32;19936;-73
2022/11/15 05:09:09;;;;;;;;;;;;;;;;;;4426024;32;20057;-72
2022/11/15 05:11:34;;;;;;;60.70;35.90;;;;;;;;;;4438660;32;19944;-72
2022/11/15 05:13:59;;;;;;;49.55;33.60;;;;;;;;;;4438847;32;20312;-72
2022/11/15 05:16:24;;;;;;;;;;;;;;;;;;4439286;32;20148;-73
2022/11/15 05:18:51;;;;;;;57.40;35.95;;;;;;;;;;4440448;32;19937;-73
2022/11/15 05:21:16;;;;;;;;;;;;;;;;;;4439183;32;20505;-73
2022/11/15 05:23:41;;;;;;;50.57;33.90;;;;;;;;;;4439382;32;19933;-73
2022/11/15 05:26:06;;;;;;;;;;;;;;;;;;4439219;32;20392;-72
2022/11/15 05:28:32;;;;;;;43.38;29.77;;;;;;;;;;4424731;32;19936;-73
2022/11/15 05:31:04;;;;;;;44.28;29.52;;;;;;;;;;4437852;32;20072;-72
2022/11/15 05:33:29;;;;;;;48.47;27.77;;;;;;;;;;4438985;32;20107;-72
2022/11/15 05:35:54;;;;;;;;;;;;;;;;;;4439875;32;20343;-72
2022/11/15 05:38:19;;;;;;;44.00;24.95;;;;;;;;;;4432902;32;20350;-71
2022/11/15 05:40:45;;;;;;;39.85;24.98;;;;;;;;;;4422947;32;20029;-72
2022/11/15 05:43:10;;;;;;;39.35;23.83;;;;;;;;;;4408351;32;20026;-71
2022/11/15 05:45:36;;;;;;;46.88;23.77;;;;;;;;;;4423706;32;20352;-72
2022/11/15 05:48:01;;;;;;;;;;;;;;;;;;4422699;32;20082;-73
2022/11/15 05:50:27;;;;;;;32.17;21.52;;;;;;;;;;4421842;32;19951;-71
2022/11/15 05:52:53;;;;;;;40.22;24.67;;;;;;;;;;4422175;32;20077;-72
2022/11/15 05:55:19;;;;;;;31.70;20.27;;;;;;;;;;4423178;32;20026;-72
2022/11/15 05:57:44;;;;;;;;;;;;;;;;;;4422043;32;20022;-73
2022/11/15 06:00:09;;;;;;;35.53;20.25;;;;;;;;;;4421391;32;19948;-73
2022/11/15 06:02:34;;;;;;;34.33;20.60;;;;;;;;;;4423682;32;20078;-72
2022/11/15 06:05:00;;;;;;;36.17;20.42;;;;;;;;;;4423883;32;20026;-72
2022/11/15 06:07:25;;;;;;;31.95;18.20;;;;;;;;;;4423609;32;20367;-72
2022/11/15 06:09:50;;;;;;;;;;;;;;;;;;4422601;32;20030;-72
2022/11/15 06:12:15;;;;;;;29.20;18.87;;;;;;;;;;4423738;32;20022;-73
2022/11/15 06:14:40;;;;;;;30.60;19.10;;;;;;;;;;4421810;32;20021;-71
2022/11/15 06:17:05;;;;;;;;;;;;;;;;;;4408428;32;20061;-73
2022/11/15 06:19:32;;;;;;;34.30;17.95;;;;;;;;;;4423669;32;19975;-73
2022/11/15 06:21:58;;;;;;;29.05;17.73;;;;;;;;;;4421875;32;20246;-72
2022/11/15 06:24:23;;;;;;;;;;;;;;;;;;4422471;32;20053;-72
2022/11/15 06:26:48;;;;;;;24.52;17.02;;;;;;;;;;4421442;32;19993;-73
2022/11/15 06:29:14;;;;;;;;;;;;;;;;;;4422168;32;20191;-72
2022/11/15 06:31:39;;;;;;;27.55;15.40;;;;;;;;;;4422007;32;19974;-71
2022/11/15 06:34:04;;;;;;;29.75;15.48;;;;;;;;;;4424594;32;20018;-71
2022/11/15 06:36:29;;;;;;;;;;;;;;;;;;4427062;32;20402;-71
2022/11/15 06:38:54;;;;;;;30.00;15.80;;;;;;;;;;4422690;32;20619;-72
2022/11/15 06:41:21;;;;;;;26.98;15.18;;;;;;;;;;4424972;32;20046;-72
2022/11/15 06:43:46;;;;;;;26.33;14.73;;;;;;;;;;4422343;32;20022;-71
2022/11/15 06:46:11;;;;;;;;;;;;;;;;;;4422036;32;20332;-71
2022/11/15 06:48:36;;;;;;;25.75;15.20;;;;;;;;;;4422642;32;20243;-71
2022/11/15 06:51:02;;;;;;;30.92;15.02;;;;;;;;;;4422814;32;20042;-71
2022/11/15 06:53:27;;;;;;;;;;;;;;;;;;4422905;32;20106;-71
2022/11/15 06:55:52;;;;;;;32.53;16.62;;;;;;;;;;4422159;32;19937;-71
2022/11/15 06:58:18;;;;;;;27.30;16.20;;;;;;;;;;4408582;32;20436;-71
2022/11/15 07:00:43;;;;;;;;;;;;;;;;;;4423087;32;20146;-72
2022/11/15 07:03:08;;;;;;;27.25;16.98;;;;;;;;;;4421050;32;19983;-71
2022/11/15 07:05:33;;;;;;;;;;;;;;;;;;4423008;32;20144;-71
2022/11/15 07:07:59;;;;;;;28.92;16.58;;;;;;;;;;4421044;32;19968;-72
2022/11/15 07:10:25;;;;;;;36.53;17.42;;;;;;;;;;4420862;32;20482;-71
2022/11/15 07:12:50;;;;;;;43.25;17.70;;;;;;;;;;4422470;32;20026;-71
2022/11/15 07:15:15;;;;;;;;;;;;;;;;;;4421236;32;20300;-71
2022/11/15 07:17:41;;;;;;;35.20;14.18;;;;;;;;;;4421126;32;19952;-71
2022/11/15 07:20:06;;;;;;;26.05;12.30;;;;;;;;;;4420547;32;20034;-71
2022/11/15 07:22:31;;;;;;;;;;;;;;;;;;4407378;32;20052;-72
2022/11/15 07:24:56;;;;;;;24.83;13.30;;;;;;;;;;4422112;32;20096;-71
2022/11/15 07:27:22;;;;;;;20.37;12.35;;;;;;;;;;4420396;32;20048;-71
2022/11/15 07:29:47;;;;;;;;;;;;;;;;;;4422249;32;20057;-71
2022/11/15 07:32:12;;;;;;;29.02;13.38;;;;;;;;;;4422030;32;19968;-71
2022/11/15 07:34:37;;;;;;;30.88;15.02;;;;;;;;;;4406650;32;20092;-72
2022/11/15 07:37:02;;;;;;;;;;;;;;;;;;4421145;32;20068;-71
2022/11/15 07:39:27;;;;;;;33.45;19.83;;;;;;;;;;4406304;32;20308;-71
2022/11/15 07:42:52;;;;;;;;;;;;;;;;;;4421874;32;20144;-71
2022/11/15 07:44:37;;;;;;;33.67;20.62;;;;;;;;;;4416731;32;19996;-72
2022/11/15 07:47:03;;;;;;;;;;;;;;;;;;4405225;32;20404;-71
2022/11/15 07:49:28;;;;;;;44.53;24.95;;;;;;;;;;4431487;32;19976;-71
2022/11/15 07:51:53;;;;;;;;;;;;;;;;;;4422631;32;20116;-71
2022/11/15 07:54:18;;;;;;;34.60;22.42;;;;;;;;;;4410396;32;20283;-72
2022/11/15 07:56:43;;;;;;;39.28;24.17;;;;;;;;;;4421200;32;20025;-71
2022/11/15 07:59:08;;;;;;;38.28;24.45;;;;;;;;;;4410670;32;20086;-71
2022/11/15 08:01:33;;;;;;;34.40;21.87;;;;;;;;;;4427138;32;20052;-71
2022/11/15 08:03:59;;;;;;;;;;;;;;;;;;4423093;32;20027;-72
2022/11/15 08:06:24;;;;;;;47.88;26.75;;;;;;;;;;4421286;32;19953;-72
2022/11/15 08:08:49;;;;;;;;;;;;;;;;;;4420933;32;20557;-71
2022/11/15 08:11:14;;;;;;;40.42;23.05;;;;;;;;;;4422125;32;19945;-70
2022/11/15 08:13:39;;;;;;;;;;;;;;;;;;4406550;32;20450;-71
2022/11/15 08:16:05;;;;;;;35.83;19.90;;;;;;;;;;4405678;32;19953;-73
2022/11/15 08:18:30;;;;;;;41.92;21.23;;;;;;;;;;4407651;32;20022;-72
2022/11/15 08:20:55;;;;;;;;;;;;;;;;;;4421130;32;20140;-72
2022/11/15 08:23:20;;;;;;;27.98;19.58;;;;;;;;;;4419694;32;19944;-73
2022/11/15 08:25:46;;;;;;;32.85;19.60;;;;;;;;;;4420422;32;20089;-73
2022/11/15 08:28:11;;;;;;;;;;;;;;;;;;4421448;32;20053;-72
2022/11/15 08:30:41;;;;;;;26.42;18.50;;;;;;;;;;4421771;32;19937;-72
2022/11/15 08:33:10;;;;;;;29.25;17.50;;;;;;;;;;4407848;32;20038;-73
2022/11/15 08:35:35;;;;;;;30.02;15.93;;;;;;;;;;4420486;32;20056;-73
2022/11/15 08:38:00;;;;;;;;;;;;;;;;;;4420855;32;20038;-73
2022/11/15 08:40:26;;;;;;;55.92;17.75;;;;;;;;;;4421263;32;19978;-71
2022/11/15 08:42:51;;;;;;;20.77;12.70;;;;;;;;;;4420191;32;20339;-70
2022/11/15 08:45:17;;;;;;;;;;;;;;;;;;4420924;32;20065;-72
2022/11/15 08:47:42;;;;;;;22.65;12.98;;;;;;;;;;4429799;32;19933;-71
2022/11/15 08:50:07;;;;;;;21.90;13.55;;;;;;;;;;4422514;32;20099;-71
2022/11/15 08:52:32;;;;;;;;;;;;;;;;;;4421812;32;20021;-71
2022/11/15 08:54:58;;;;;;;37.03;21.62;;;;;;;;;;4421119;32;20071;-71
2022/11/15 08:57:23;;;;;;;19.83;11.60;;;;;;;;;;4420281;32;20101;-72
2022/11/15 08:59:48;;;;;;;34.67;21.85;;;;;;;;;;4421236;32;20343;-72
2022/11/15 09:02:14;;;;;;;;;;;;;;;;;;4406213;32;20030;-72
2022/11/15 09:04:41;;;;;;;23.83;14.15;;;;;;;;;;4420163;32;19949;-72
2022/11/15 09:07:06;;;;;;;22.30;12.63;;;;;;;;;;4419436;32;20056;-73
2022/11/15 09:09:31;;;;;;;;;;;;;;;;;;4421418;32;20038;-72
2022/11/15 09:11:56;;;;;;;19.02;12.02;;;;;;;;;;4419728;32;19937;-72
2022/11/15 09:14:21;;;;;;;19.42;11.84;;;;;;;;;;4421290;32;20019;-71
2022/11/15 09:16:46;;;;;;;;;;;;;;;;;;4420228;32;20035;-72
2022/11/15 09:19:11;;;;;;;21.02;11.48;;;;;;;;;;4421271;32;19937;-72
2022/11/15 09:21:37;;;;;;;25.25;13.02;;;;;;;;;;4424633;32;20048;-71
2022/11/15 09:24:04;;;;;;;;;;;;;;;;;;4421479;32;20065;-72
2022/11/15 09:26:29;;;;;;;20.25;12.27;;;;;;;;;;4418864;32;20295;-71
2022/11/15 09:28:54;;;;;;;;;;;;;;;;;;4420507;32;20117;-71
2022/11/15 09:31:19;;;;;;;22.37;12.48;;;;;;;;;;4420268;32;19943;-72
2022/11/15 09:33:45;;;;;;;;;;;;;;;;;;4419872;32;20122;-70
2022/11/15 09:36:10;;;;;;;21.15;10.90;;;;;;;;;;4420763;32;20353;-70
2022/11/15 09:38:35;;;;;;;;;;;;;;;;;;4422331;32;20083;-70
2022/11/15 09:41:06;;;;;;;17.08;11.12;;;;;;;;;;4422065;32;19937;-70
2022/11/15 09:43:36;;;;;;;13.32;9.18;;;;;;;;;;4422506;32;20163;-70
2022/11/15 09:46:17;;;;;;;16.08;8.25;;;;;;;;;;4423379;32;20090;-70
2022/11/15 09:48:48;;;;;;;13.25;7.72;;;;;;;;;;4421937;32;20374;-70
2022/11/15 09:51:21;;;;;;;9.80;6.15;;;;;;;;;;4421748;32;20173;-71
2022/11/15 09:53:46;;;;;;;12.65;6.53;;;;;;;;;;4408871;32;20086;-70
2022/11/15 09:56:11;;;;;;;;;;;;;;;;;;4421559;32;20026;-70
2022/11/15 09:58:39;;;;;;;19.40;6.65;;;;;;;;;;4421719;32;19978;-70
2022/11/15 10:01:07;;;;;;;14.20;7.05;;;;;;;;;;4423838;32;20034;-70
2022/11/15 10:03:38;;;;;;;14.43;6.90;;;;;;;;;;4421365;32;20030;-70
2022/11/15 10:06:04;;;;;;;12.80;5.78;;;;;;;;;;4408175;32;20105;-69
2022/11/15 10:08:30;;;;;;;13.35;6.28;;;;;;;;;;4422494;32;20483;-69
2022/11/15 10:10:55;;;;;;;;;;;;;;;;;;4423014;32;20030;-70
2022/11/15 10:13:25;;;;;;;16.77;8.88;;;;;;;;;;4423166;32;19984;-70
2022/11/15 10:15:51;;;;;;;15.00;5.90;;;;;;;;;;4421602;32;20053;-70
2022/11/15 10:18:25;;;;;;;9.02;4.97;;;;;;;;;;4422092;32;20052;-69
2022/11/15 10:20:52;;;;;;;22.05;6.68;;;;;;;;;;4422718;32;20090;-71
2022/11/15 10:23:19;;;;;;;14.43;5.93;;;;;;;;;;4422703;32;20075;-70
2022/11/15 10:25:45;;;;;;;10.70;5.03;;;;;;;;;;4421513;32;20064;-70
2022/11/15 10:28:10;;;;;;;;;;;;;;;;;;4407848;32;20026;-70
2022/11/15 10:30:35;;;;;;;10.13;4.75;;;;;;;;;;4421848;32;20259;-70
2022/11/15 10:33:09;;;;;;;11.98;4.62;;;;;;;;;;4422905;32;20026;-72
2022/11/15 10:35:34;;;;;;;10.77;4.72;;;;;;;;;;4423318;32;20097;-71
2022/11/15 10:37:59;;;;;;;;;;;;;;;;;;4422264;32;20052;-72
2022/11/15 10:40:25;;;;;;;7.97;4.40;;;;;;;;;;4423850;32;19946;-70
2022/11/15 10:42:50;;;;;;;;;;;;;;;;;;4422558;32;20455;-71
2022/11/15 10:45:29;;;;;;;10.35;4.45;;;;;;;;;;4423212;32;19937;-70
2022/11/15 10:48:14;;;;;;;9.43;3.67;;;;;;;;;;4421097;32;20044;-70
2022/11/15 10:50:41;;;;;;;8.57;3.60;;;;;;;;;;4420995;32;20034;-71
2022/11/15 10:53:25;;;;;;;9.25;4.32;;;;;;;;;;4407890;32;20026;-70
2022/11/15 10:55:52;;;;;;;8.70;3.90;;;;;;;;;;4422045;32;20056;-71
2022/11/15 10:58:36;;;;;;;11.10;3.87;;;;;;;;;;4428023;32;20048;-70
2022/11/15 11:01:11;;;;;;;12.37;4.05;;;;;;;;;;4410411;32;20026;-69
2022/11/15 11:03:38;;;;;;;11.55;4.32;;;;;;;;;;4421192;32;20031;-70
2022/11/15 11:06:07;;;;;;;13.38;4.47;;;;;;;;;;4421057;32;20042;-70
2022/11/15 11:08:33;;;;;;;8.25;3.15;;;;;;;;;;4421517;32;20022;-70
2022/11/15 11:10:59;;;;;;;7.43;3.65;;;;;;;;;;4422964;32;20037;-72
2022/11/15 11:13:24;;;;;;;;;;;;;;;;;;4422045;32;20100;-71
2022/11/15 11:16:13;;;;;;;13.45;5.78;;;;;;;;;;4421024;32;19993;-71
2022/11/15 11:18:47;;;;;;;13.95;4.90;;;;;;;;;;4410834;32;20168;-70
2022/11/15 11:21:24;;;;;;;12.57;3.85;;;;;;;;;;4422169;32;20033;-70
2022/11/15 11:24:08;;;;;;;10.65;4.65;;;;;;;;;;4421921;32;20089;-70
2022/11/15 11:26:46;;;;;;;13.13;3.00;;;;;;;;;;4421327;32;20026;-70
2022/11/15 11:29:49;;;;;;;11.15;2.65;;;;;;;;;;4422374;32;20067;-70
2022/11/15 11:32:34;;;;;;;13.48;3.25;;;;;;;;;;4331336;33;20402;-70
2022/11/15 11:35:19;;;;;;;23.77;3.92;;;;;;;;;;4344103;33;20436;-70
2022/11/15 11:37:44;;;;;;;9.95;2.47;;;;;;;;;;4399451;32;20464;-71
2022/11/15 11:40:09;;;;;;;;;;;;;;;;;;4407440;32;20034;-71
2022/11/15 11:42:40;;;;;;;11.02;2.72;;;;;;;;;;4421443;32;19967;-71
2022/11/15 11:45:24;;;;;;;7.35;2.60;;;;;;;;;;4421434;32;20018;-71
2022/11/15 11:47:55;;;;;;;9.27;2.50;;;;;;;;;;4421236;32;20060;-71
2022/11/15 11:50:24;;;;;;;5.22;3.12;;;;;;;;;;4421832;32;20089;-71
2022/11/15 11:53:08;;;;;;;6.85;2.53;;;;;;;;;;4421849;32;20107;-71
2022/11/15 11:55:39;;;;;;;10.57;3.10;;;;;;;;;;4408843;32;20057;-71
2022/11/15 11:58:19;;;;;;;7.70;2.17;;;;;;;;;;4426548;32;20021;-71
2022/11/15 12:00:51;;;;;;;7.28;2.87;;;;;;;;;;4422285;32;20049;-71
2022/11/15 12:03:37;;;;;;;8.27;2.33;;;;;;;;;;4422087;32;20087;-71
2022/11/15 12:06:09;;;;;;;6.00;2.22;;;;;;;;;;4407030;32;20030;-71
2022/11/15 12:08:45;;;;;;;12.65;3.22;;;;;;;;;;4420832;32;20042;-70
2022/11/15 12:11:10;;;;;;;;;;;;;;;;;;4408620;32;20052;-70
2022/11/15 12:13:36;;;;;;;9.98;2.67;;;;;;;;;;4420731;32;19933;-70
2022/11/15 12:16:01;;;;;;;8.05;2.55;;;;;;;;;;4408302;32;20101;-71
2022/11/15 12:18:28;;;;;;;10.05;3.80;;;;;;;;;;4419980;32;20026;-71
2022/11/15 12:20:56;;;;;;;10.55;4.70;;;;;;;;;;4421192;32;20128;-71
2022/11/15 12:23:24;;;;;;;23.65;8.57;;;;;;;;;;4420101;32;20419;-70
2022/11/15 12:25:51;;;;;;;17.77;5.28;;;;;;;;;;4421625;32;20056;-70
2022/11/15 12:28:35;;;;;;;15.20;3.67;;;;;;;;;;4420031;32;20026;-71
2022/11/15 12:31:03;;;;;;;25.15;3.25;;;;;;;;;;4405700;32;20423;-71
2022/11/15 12:33:28;;;;;;;9.73;2.12;;;;;;;;;;4421232;32;20489;-70
2022/11/15 12:35:58;;;;;;;18.30;3.35;;;;;;;;;;4419357;32;20097;-71
2022/11/15 12:38:46;;;;;;;11.95;2.53;;;;;;;;;;4420459;32;20206;-71
2022/11/15 12:41:13;;;;;;;12.07;2.45;;;;;;;;;;4410189;32;20374;-71
2022/11/15 12:43:39;;;;;;;21.55;3.33;;;;;;;;;;4419867;32;20069;-72
2022/11/15 12:46:05;;;;;;;16.02;3.40;;;;;;;;;;4420202;32;20026;-72
2022/11/15 12:48:45;;;;;;;18.35;2.95;;;;;;;;;;4405784;32;20041;-72
2022/11/15 12:51:10;;;;;;;12.15;2.90;;;;;;;;;;4422140;32;20041;-71
2022/11/15 12:53:36;;;;;;;14.10;3.90;;;;;;;;;;4420250;32;20021;-72
2022/11/15 12:56:04;;;;;;;13.27;4.87;;;;;;;;;;4421826;32;20117;-70
2022/11/15 12:58:49;;;;;;;15.63;5.47;;;;;;;;;;4420734;32;20049;-70
2022/11/15 13:01:33;;;;;;;11.60;4.72;;;;;;;;;;4420599;32;20030;-70
2022/11/15 13:04:07;;;;;;;13.57;5.47;;;;;;;;;;4420696;32;20105;-71
2022/11/15 13:06:36;;;;;;;8.55;2.72;;;;;;;;;;4420383;32;20342;-71
2022/11/15 13:09:01;;;;;;;14.35;3.47;;;;;;;;;;4424543;32;20082;-69
2022/11/15 13:11:43;;;;;;;9.68;2.50;;;;;;;;;;4427699;32;20026;-70
2022/11/15 13:14:27;;;;;;;11.65;2.30;;;;;;;;;;4410609;32;20422;-70
2022/11/15 13:16:59;;;;;;;10.68;2.10;;;;;;;;;;4423245;32;20416;-72
2022/11/15 13:19:24;;;;;;;4.65;1.60;;;;;;;;;;4423218;32;20144;-71
2022/11/15 13:24:33;;;;;;;9.05;1.90;;;;;;;;;;4416623;32;20454;-71
2022/11/15 13:26:58;;;;;;;;;;;;;;;;;;4409377;32;20026;-71
2022/11/15 13:29:23;;;;;;;8.55;1.62;;;;;;;;;;4439194;32;19948;-71
2022/11/15 13:31:48;;;;;;;10.77;3.10;;;;;;;;;;4439739;32;20053;-71
2022/11/15 13:34:14;;;;;;;;;;;;;;;;;;4439999;32;20051;-71
2022/11/15 13:36:39;;;;;;;19.52;2.95;;;;;;;;;;4425124;32;20332;-71
2022/11/15 13:39:06;;;;;;;9.45;2.15;;;;;;;;;;4436743;32;20084;-71
2022/11/15 13:41:33;;;;;;;37.15;24.10;;;;;;;;;;4430833;32;20030;-71
2022/11/15 13:43:59;;;;;;;12.37;2.47;;;;;;;;;;4424192;32;20129;-69
2022/11/15 13:46:24;;;;;;;;;;;;;;;;;;4422755;32;20073;-71
2022/11/15 13:49:03;;;;;;;10.30;2.07;;;;;;;;;;4423311;32;19929;-71
2022/11/15 13:51:28;;;;;;;9.90;2.35;;;;;;;;;;4407719;32;20084;-71
2022/11/15 13:53:53;;;;;;;;;;;;;;;;;;4422516;32;20038;-72
2022/11/15 13:56:19;;;;;;;11.27;3.35;;;;;;;;;;4422673;32;19979;-72
2022/11/15 13:58:45;;;;;;;7.47;2.62;;;;;;;;;;4424160;32;20420;-72
2022/11/15 14:01:10;;;;;;;;;;;;;;;;;;4423917;32;20022;-71
2022/11/15 14:03:46;;;;;;;4.75;1.87;;;;;;;;;;4423716;32;19979;-71
2022/11/15 14:06:13;;;;;;;5.82;2.28;;;;;;;;;;4423182;32;20118;-69
2022/11/15 14:08:42;;;;;;;10.70;2.40;;;;;;;;;;4423664;32;20087;-72
2022/11/15 14:11:17;;;;;;;11.77;2.37;;;;;;;;;;4421800;32;20137;-70
2022/11/15 14:13:58;;;;;;;16.58;3.08;;;;;;;;;;4421513;32;20400;-71
2022/11/15 14:16:32;;;;;;;13.95;3.22;;;;;;;;;;4423170;32;20030;-71
2022/11/15 14:18:57;;;;;;;10.82;2.42;;;;;;;;;;4422971;32;20084;-72
2022/11/15 14:21:22;;;;;;;;;;;;;;;;;;4409067;32;20371;-72
2022/11/15 14:23:48;;;;;;;14.00;2.42;;;;;;;;;;4422579;32;19974;-72
2022/11/15 14:26:28;;;;;;;8.90;2.40;;;;;;;;;;4409393;32;20176;-71
2022/11/15 14:28:53;;;;;;;6.75;2.03;;;;;;;;;;4427224;32;20183;-72
2022/11/15 14:31:18;;;;;;;;;;;;;;;;;;4422960;32;20026;-72
2022/11/15 14:33:43;;;;;;;6.62;2.85;;;;;;;;;;4419826;32;20021;-71
2022/11/15 14:36:19;;;;;;;15.93;2.15;;;;;;;;;;4437363;32;20355;-72
2022/11/15 14:38:44;;;;;;;8.27;2.47;;;;;;;;;;4436049;32;20419;-72
2022/11/15 14:41:10;;;;;;;;;;;;;;;;;;4438522;32;20074;-72
2022/11/15 14:43:35;;;;;;;6.12;1.75;;;;;;;;;;4438038;32;19933;-71
2022/11/15 14:46:00;;;;;;;5.28;1.30;;;;;;;;;;4436913;32;20399;-72
2022/11/15 14:48:25;;;;;;;18.50;3.90;;;;;;;;;;4404338;32;20079;-71
2022/11/15 14:50:50;;;;;;;9.35;4.07;;;;;;;;;;4407993;32;20330;-73
2022/11/15 14:53:15;;;;;;;;;;;;;;;;;;4407315;32;20034;-72
2022/11/15 14:55:41;;;;;;;7.75;3.05;;;;;;;;;;4407355;32;20377;-72
2022/11/15 14:58:09;;;;;;;;;;;;;;;;;;4406533;32;20148;-72
2022/11/15 15:00:35;;;;;;;12.95;2.75;;;;;;;;;;4415769;32;19937;-72
2022/11/15 15:03:00;;;;;;;;;;;;;;;;;;4421307;32;20065;-72
2022/11/15 15:05:29;;;;;;;15.60;2.95;;;;;;;;;;4420987;32;20320;-72
2022/11/15 15:07:54;;;;;;;11.05;2.95;;;;;;;;;;4422783;32;20029;-72
2022/11/15 15:10:20;;;;;;;;;;;;;;;;;;4423821;32;20053;-72